Time;durP1;ratioP1;P1;durP2;ratioP2;P2;SDS_P1;SDS_P2;PMS_P1;PMS_P2;Temp;Humidity;BMP_temperature;BMP_pressure;BME280_temperature;BME280_humidity;BME280_pressure;Samples;Min_cycle;Max_cycle;Signal;HPM_P1;HPM_P2
2022/04/27 00:00:33;;;;;;;12.73;7.97;;;6.40;87.40;;;;;;5129070;27;20478;-71
2022/04/27 00:03:00;;;;;;;16.58;8.00;;;6.40;87.40;;;;;;5127432;27;20035;-71
2022/04/27 00:05:26;;;;;;;12.65;7.63;;;6.50;87.10;;;;;;5126142;27;20463;-71
2022/04/27 00:07:51;;;;;;;18.15;8.48;;;6.50;86.80;;;;;;5132481;27;20126;-71
2022/04/27 00:10:21;;;;;;;14.13;7.47;;;6.50;86.60;;;;;;5121923;27;20458;-71
2022/04/27 00:12:46;;;;;;;12.45;7.38;;;6.50;86.60;;;;;;5109427;27;20369;-71
2022/04/27 00:15:12;;;;;;;12.65;7.18;;;6.60;86.70;;;;;;5129814;27;20031;-71
2022/04/27 00:17:39;;;;;;;13.68;7.90;;;6.60;86.30;;;;;;5128014;27;20129;-71
2022/04/27 00:20:07;;;;;;;11.32;7.00;;;6.50;86.20;;;;;;5128815;27;20020;-71
2022/04/27 00:22:33;;;;;;;18.17;8.05;;;6.50;86.20;;;;;;5129975;27;20023;-71
2022/04/27 00:25:00;;;;;;;14.85;7.68;;;6.60;86.40;;;;;;5131468;27;20027;-71
2022/04/27 00:27:27;;;;;;;12.20;7.20;;;6.60;86.10;;;;;;5128726;27;20484;-71
2022/04/27 00:29:53;;;;;;;10.70;7.40;;;6.70;86.30;;;;;;5128495;27;20350;-71
2022/04/27 00:32:18;;;;;;;10.88;7.55;;;6.70;86.40;;;;;;5127860;27;20042;-71
2022/04/27 00:34:44;;;;;;;14.38;7.78;;;6.70;86.20;;;;;;5129597;27;20043;-71
2022/04/27 00:37:09;;;;;;;11.85;7.20;;;6.80;86.30;;;;;;5126549;27;20410;-71
2022/04/27 00:39:34;;;;;;;12.52;7.50;;;6.70;85.90;;;;;;5131602;27;20358;-71
2022/04/27 00:42:15;;;;;;;14.85;7.40;;;6.80;85.70;;;;;;5126634;27;20039;-71
2022/04/27 00:44:43;;;;;;;14.05;7.47;;;6.80;85.70;;;;;;5122293;27;20027;-71
2022/04/27 00:47:14;;;;;;;13.70;6.70;;;6.80;85.90;;;;;;5121813;27;20106;-71
2022/04/27 00:49:45;;;;;;;14.47;7.27;;;6.80;85.70;;;;;;5131388;27;20015;-71
2022/04/27 00:52:12;;;;;;;11.82;6.55;;;6.90;85.60;;;;;;5124247;27;20462;-71
2022/04/27 00:54:40;;;;;;;12.40;6.82;;;6.90;85.10;;;;;;5126730;27;20023;-71
2022/04/27 00:57:07;;;;;;;14.02;6.72;;;6.90;85.20;;;;;;5126343;27;20033;-71
2022/04/27 00:59:33;;;;;;;13.57;6.85;;;6.90;85.00;;;;;;5131496;27;20023;-71
2022/04/27 01:01:58;;;;;;;13.70;6.35;;;7.00;85.10;;;;;;5127251;27;20031;-71
2022/04/27 01:04:24;;;;;;;10.73;6.47;;;6.90;85.00;;;;;;5130676;27;20504;-71
2022/04/27 01:06:50;;;;;;;11.35;7.13;;;6.90;85.10;;;;;;5129351;27;20102;-71
2022/04/27 01:09:17;;;;;;;13.68;6.88;;;7.00;85.10;;;;;;5120082;27;20077;-71
2022/04/27 01:11:44;;;;;;;11.20;6.47;;;7.00;84.90;;;;;;5109740;27;20389;-72
2022/04/27 01:14:09;;;;;;;14.35;6.50;;;7.00;85.00;;;;;;5127695;27;20023;-71
2022/04/27 01:16:35;;;;;;;9.30;6.25;;;7.10;84.70;;;;;;5128425;27;20038;-71
2022/04/27 01:19:00;;;;;;;12.40;6.10;;;7.10;84.70;;;;;;5118642;27;20020;-71
2022/04/27 01:21:26;;;;;;;12.18;6.07;;;7.10;84.30;;;;;;5114282;27;20039;-71
2022/04/27 01:23:53;;;;;;;12.70;6.28;;;7.20;84.10;;;;;;5130184;27;20042;-71
2022/04/27 01:26:19;;;;;;;10.52;6.03;;;7.20;84.00;;;;;;5128120;27;20097;-72
2022/04/27 01:28:45;;;;;;;10.20;5.65;;;7.20;83.90;;;;;;5127110;27;20102;-71
2022/04/27 01:31:11;;;;;;;9.13;5.03;;;7.20;83.80;;;;;;5128143;27;20101;-71
2022/04/27 01:33:37;;;;;;;11.68;5.75;;;7.20;83.80;;;;;;5130721;27;20023;-71
2022/04/27 01:36:06;;;;;;;11.15;5.25;;;7.30;83.80;;;;;;5123689;27;20027;-71
2022/04/27 01:38:35;;;;;;;17.02;5.18;;;7.30;83.60;;;;;;5130285;27;20120;-71
2022/04/27 01:41:02;;;;;;;10.10;5.35;;;7.30;83.40;;;;;;5126903;27;20053;-70
2022/04/27 01:43:27;;;;;;;12.23;5.65;;;7.40;83.40;;;;;;5124553;27;20015;-70
2022/04/27 01:45:53;;;;;;;11.88;5.68;;;7.40;83.40;;;;;;5123107;27;20046;-70
2022/04/27 01:48:20;;;;;;;14.35;5.97;;;7.40;83.50;;;;;;5130595;27;20038;-70
2022/04/27 01:50:46;;;;;;;10.50;5.93;;;7.40;83.50;;;;;;5125913;27;20095;-70
2022/04/27 01:55:56;;;;;;;12.85;5.75;;;7.40;83.50;;;;;;5123312;27;20022;-70
2022/04/27 01:58:22;;;;;;;16.50;6.57;;;7.30;83.80;;;;;;5128347;27;20039;-70
2022/04/27 02:00:48;;;;;;;10.95;5.97;;;7.30;83.90;;;;;;5119636;27;20450;-70
2022/04/27 02:03:15;;;;;;;11.45;5.95;;;7.20;84.00;;;;;;5120750;27;20034;-70
2022/04/27 02:05:41;;;;;;;11.52;6.05;;;7.20;84.00;;;;;;5121323;27;20077;-70
2022/04/27 02:08:07;;;;;;;10.55;6.20;;;7.20;84.10;;;;;;5128236;27;20031;-70
2022/04/27 02:10:34;;;;;;;9.13;6.15;;;7.30;84.10;;;;;;5116802;27;20042;-70
2022/04/27 02:13:01;;;;;;;12.52;6.78;;;7.20;83.90;;;;;;5127607;27;20030;-70
2022/04/27 02:15:27;;;;;;;12.40;6.55;;;7.30;83.80;;;;;;5123772;27;20036;-70
2022/04/27 02:17:53;;;;;;;12.23;6.65;;;7.30;83.80;;;;;;5120713;27;20268;-70
2022/04/27 02:20:19;;;;;;;14.88;6.72;;;7.20;83.80;;;;;;5124781;27;20047;-70
2022/04/27 02:22:45;;;;;;;12.45;6.57;;;7.20;83.90;;;;;;5129748;27;20035;-70
2022/04/27 02:25:11;;;;;;;13.32;6.03;;;7.20;83.70;;;;;;5127673;27;20025;-70
2022/04/27 02:27:36;;;;;;;11.52;6.20;;;7.20;83.60;;;;;;5119166;27;20019;-70
2022/04/27 02:30:04;;;;;;;9.40;5.72;;;7.20;83.80;;;;;;5120251;27;20054;-70
2022/04/27 02:32:30;;;;;;;15.02;5.55;;;7.10;83.80;;;;;;5125306;27;20722;-70
2022/04/27 02:34:55;;;;;;;12.95;5.45;;;7.10;83.50;;;;;;5125912;27;20019;-73
2022/04/27 02:37:21;;;;;;;11.60;5.28;;;7.10;83.50;;;;;;5129706;27;20035;-73
2022/04/27 02:39:46;;;;;;;8.52;5.65;;;7.10;83.70;;;;;;5127048;27;20027;-73
2022/04/27 02:42:12;;;;;;;10.02;5.63;;;7.10;83.60;;;;;;5125366;28;20160;-73
2022/04/27 02:44:37;;;;;;;10.10;5.22;;;7.00;83.70;;;;;;5116926;28;20047;-73
2022/04/27 02:47:04;;;;;;;8.95;5.22;;;7.00;83.90;;;;;;5121330;28;20351;-73
2022/04/27 02:52:14;;;;;;;10.98;6.10;;;7.00;84.00;;;;;;5126157;28;20049;-70
2022/04/27 02:54:39;;;;;;;13.32;5.25;;;7.00;83.90;;;;;;5124417;28;20035;-70
2022/04/27 02:57:05;;;;;;;10.90;5.53;;;7.00;83.70;;;;;;5129905;28;20535;-70
2022/04/27 02:59:31;;;;;;;16.48;5.53;;;7.00;83.80;;;;;;5122135;28;20027;-70
2022/04/27 03:01:56;;;;;;;13.30;5.93;;;7.00;83.90;;;;;;5128538;27;20437;-71
2022/04/27 03:04:21;;;;;;;15.45;5.80;;;6.90;83.70;;;;;;5123870;27;20035;-71
2022/04/27 03:06:47;;;;;;;15.10;5.82;;;6.90;83.80;;;;;;5132575;27;20393;-71
2022/04/27 03:09:12;;;;;;;10.57;5.57;;;6.80;83.80;;;;;;5128750;27;20032;-71
2022/04/27 03:11:38;;;;;;;9.35;6.05;;;6.70;84.00;;;;;;5129020;27;20032;-71
2022/04/27 03:14:03;;;;;;;10.38;5.60;;;6.70;84.40;;;;;;5128569;27;20031;-71
2022/04/27 03:16:29;;;;;;;9.45;5.93;;;6.60;84.50;;;;;;5133171;27;20439;-71
2022/04/27 03:18:54;;;;;;;10.13;5.68;;;6.60;84.80;;;;;;5132091;27;20034;-71
2022/04/27 03:21:20;;;;;;;12.73;5.90;;;6.60;84.80;;;;;;5128120;27;20125;-71
2022/04/27 03:23:45;;;;;;;12.75;6.88;;;6.60;84.90;;;;;;5127573;27;20023;-71
2022/04/27 03:26:11;;;;;;;12.93;6.75;;;6.50;85.10;;;;;;5122503;27;20050;-71
2022/04/27 03:28:37;;;;;;;12.98;6.75;;;6.50;85.10;;;;;;5126975;27;20477;-71
2022/04/27 03:31:02;;;;;;;13.65;6.60;;;6.50;85.30;;;;;;5132985;27;20030;-73
2022/04/27 03:33:28;;;;;;;9.63;6.13;;;6.50;85.20;;;;;;5130393;27;20465;-71
2022/04/27 03:35:53;;;;;;;14.73;6.47;;;6.50;85.30;;;;;;5130251;27;20466;-71
2022/04/27 03:38:19;;;;;;;14.82;6.85;;;6.50;85.50;;;;;;5132180;27;20147;-71
2022/04/27 03:40:47;;;;;;;14.52;6.72;;;6.50;85.40;;;;;;5131292;27;20165;-71
2022/04/27 03:43:14;;;;;;;11.13;6.50;;;6.50;85.20;;;;;;5128933;27;20374;-71
2022/04/27 03:45:40;;;;;;;13.30;6.72;;;6.40;85.00;;;;;;5127101;27;20529;-71
2022/04/27 03:48:06;;;;;;;11.68;6.50;;;6.40;85.40;;;;;;5132098;27;20110;-71
2022/04/27 03:50:32;;;;;;;13.55;6.50;;;6.30;85.40;;;;;;5123971;27;20039;-71
2022/04/27 03:52:58;;;;;;;12.55;6.28;;;6.30;85.40;;;;;;5121079;27;20027;-71
2022/04/27 03:55:23;;;;;;;14.20;6.57;;;6.30;85.50;;;;;;5125306;27;20458;-71
2022/04/27 03:57:49;;;;;;;11.25;6.47;;;6.30;85.40;;;;;;5132171;27;20031;-71
2022/04/27 04:00:14;;;;;;;15.23;6.55;;;6.20;85.40;;;;;;5127331;27;20038;-71
2022/04/27 04:02:40;;;;;;;13.13;7.03;;;6.20;85.80;;;;;;5128521;27;20358;-71
2022/04/27 04:05:06;;;;;;;13.30;7.15;;;6.20;85.80;;;;;;5125698;27;20058;-71
2022/04/27 04:07:33;;;;;;;10.05;6.60;;;6.20;85.80;;;;;;5124189;27;20042;-71
2022/04/27 04:09:58;;;;;;;11.82;6.85;;;6.10;85.70;;;;;;5127621;27;20030;-71
2022/04/27 04:12:24;;;;;;;12.05;6.88;;;6.10;86.00;;;;;;5132321;27;20097;-71
2022/04/27 04:14:50;;;;;;;16.70;7.40;;;6.10;86.00;;;;;;5130758;27;20097;-71
2022/04/27 04:17:16;;;;;;;15.65;7.40;;;6.00;86.00;;;;;;5122252;27;20032;-71
2022/04/27 04:19:42;;;;;;;12.30;7.85;;;5.90;86.50;;;;;;5106754;27;20029;-68
2022/04/27 04:22:08;;;;;;;15.07;7.32;;;5.90;86.70;;;;;;5121414;27;20062;-68
2022/04/27 04:24:33;;;;;;;17.02;7.95;;;5.80;86.90;;;;;;5127041;27;20035;-68
2022/04/27 04:29:43;;;;;;;16.55;7.75;;;5.70;87.20;;;;;;5126372;27;20145;-70
2022/04/27 04:32:08;;;;;;;18.42;8.25;;;5.80;87.60;;;;;;5126582;27;20270;-69
2022/04/27 04:34:34;;;;;;;15.57;7.85;;;5.70;87.80;;;;;;5127769;27;20099;-69
2022/04/27 04:36:59;;;;;;;14.18;8.45;;;5.80;87.90;;;;;;5124528;27;20497;-69
2022/04/27 04:39:25;;;;;;;15.45;9.05;;;5.70;87.60;;;;;;5124664;27;20030;-71
2022/04/27 04:41:51;;;;;;;21.48;8.48;;;5.70;87.80;;;;;;5126908;27;20051;-71
2022/04/27 04:44:16;;;;;;;18.30;8.40;;;5.70;87.70;;;;;;5125744;27;20020;-71
2022/04/27 04:46:42;;;;;;;14.55;8.70;;;5.70;87.70;;;;;;5109505;27;20060;-71
2022/04/27 04:49:07;;;;;;;12.35;7.88;;;5.70;87.80;;;;;;5126095;27;20023;-71
2022/04/27 04:51:34;;;;;;;18.27;8.07;;;5.70;87.60;;;;;;5122453;27;20153;-70
2022/04/27 04:53:59;;;;;;;21.60;9.35;;;5.70;87.50;;;;;;5127042;27;20034;-71
2022/04/27 04:56:25;;;;;;;16.30;9.55;;;5.80;87.60;;;;;;5120785;27;20023;-71
2022/04/27 04:58:50;;;;;;;17.35;9.27;;;5.90;87.90;;;;;;5126162;27;20447;-70
2022/04/27 05:01:16;;;;;;;21.30;10.63;;;6.00;87.90;;;;;;5122981;27;20315;-71
2022/04/27 05:03:41;;;;;;;15.57;10.02;;;6.10;87.80;;;;;;5121707;27;20164;-72
2022/04/27 05:06:07;;;;;;;18.90;9.60;;;6.30;87.60;;;;;;5103440;27;20052;-71
2022/04/27 05:08:32;;;;;;;14.35;8.88;;;6.50;87.60;;;;;;5125452;27;20040;-71
2022/04/27 05:10:58;;;;;;;15.20;8.75;;;6.60;87.40;;;;;;5125722;27;20035;-70
2022/04/27 05:13:23;;;;;;;16.52;8.85;;;6.70;87.20;;;;;;5128237;27;20462;-69
2022/04/27 05:15:49;;;;;;;15.63;8.30;;;6.80;86.60;;;;;;5123100;27;20047;-71
2022/04/27 05:18:17;;;;;;;18.33;9.13;;;6.80;86.10;;;;;;5131139;27;20031;-70
2022/04/27 05:20:43;;;;;;;14.95;8.40;;;6.80;85.50;;;;;;5123805;27;20116;-70
2022/04/27 05:23:11;;;;;;;19.33;8.23;;;6.90;85.70;;;;;;5132752;27;20452;-70
2022/04/27 05:25:37;;;;;;;17.55;8.48;;;7.00;85.50;;;;;;5126668;27;20011;-70
2022/04/27 05:28:03;;;;;;;17.05;8.70;;;7.10;85.50;;;;;;5130042;27;20420;-70
2022/04/27 05:33:17;;;;;;;16.98;7.72;;;7.00;85.10;;;;;;5124792;27;20061;-70
2022/04/27 05:35:43;;;;;;;15.13;8.95;;;7.00;85.20;;;;;;5126044;27;20026;-70
2022/04/27 05:38:09;;;;;;;17.02;8.68;;;7.00;85.30;;;;;;5131791;27;20454;-71
2022/04/27 05:40:35;;;;;;;19.83;8.85;;;7.00;85.30;;;;;;5126717;27;20025;-72
2022/04/27 05:43:05;;;;;;;12.52;8.52;;;7.00;85.20;;;;;;5120837;27;20401;-71
2022/04/27 05:45:32;;;;;;;11.35;7.93;;;7.00;85.00;;;;;;5129381;27;20088;-72
2022/04/27 05:47:57;;;;;;;20.70;8.98;;;7.10;85.20;;;;;;5123120;27;20020;-72
2022/04/27 05:50:23;;;;;;;17.42;8.98;;;7.10;85.30;;;;;;5118751;27;20077;-71
2022/04/27 05:52:54;;;;;;;15.95;8.00;;;7.10;85.30;;;;;;5128560;27;20712;-74
2022/04/27 05:55:20;;;;;;;10.55;7.32;;;7.10;85.30;;;;;;5124411;27;20027;-72
2022/04/27 05:57:46;;;;;;;18.05;7.82;;;7.10;85.30;;;;;;5124482;27;20047;-72
2022/04/27 06:00:13;;;;;;;15.32;7.75;;;7.10;85.30;;;;;;5120125;27;20062;-73
2022/04/27 06:02:39;;;;;;;18.98;7.55;;;7.10;85.20;;;;;;5111603;27;20474;-72
2022/04/27 06:05:06;;;;;;;13.77;7.82;;;7.20;84.80;;;;;;5124269;27;20196;-71
2022/04/27 06:07:34;;;;;;;16.73;7.18;;;7.40;84.70;;;;;;5118514;27;20027;-72
2022/04/27 06:09:59;;;;;;;12.48;7.30;;;7.50;84.00;;;;;;5112177;27;20031;-72
2022/04/27 06:12:29;;;;;;;11.65;6.45;;;7.60;83.70;;;;;;5123840;27;20020;-72
2022/04/27 06:14:54;;;;;;;11.40;6.55;;;7.60;82.70;;;;;;5115740;27;20023;-72
2022/04/27 06:17:20;;;;;;;13.73;6.35;;;7.90;82.30;;;;;;5126576;27;20054;-72
2022/04/27 06:19:45;;;;;;;13.45;6.13;;;8.20;82.00;;;;;;5130347;27;20098;-72
2022/04/27 06:22:11;;;;;;;10.95;5.28;;;8.30;81.20;;;;;;5130792;27;20042;-72
2022/04/27 06:24:36;;;;;;;11.57;5.70;;;8.30;80.30;;;;;;5126382;27;20426;-72
2022/04/27 06:27:02;;;;;;;12.85;5.63;;;8.50;80.50;;;;;;5127126;27;20023;-72
2022/04/27 06:29:27;;;;;;;10.48;5.25;;;8.70;80.00;;;;;;5122074;27;20019;-72
2022/04/27 06:31:53;;;;;;;10.45;5.35;;;8.80;79.50;;;;;;5111796;28;20027;-73
2022/04/27 06:34:18;;;;;;;9.10;4.70;;;8.80;78.90;;;;;;5117013;27;20039;-72
2022/04/27 06:36:44;;;;;;;9.10;4.93;;;9.10;79.20;;;;;;5112608;27;20060;-72
2022/04/27 06:39:14;;;;;;;8.13;4.20;;;9.10;78.00;;;;;;5115891;27;20039;-72
2022/04/27 06:41:40;;;;;;;7.32;3.85;;;9.30;77.50;;;;;;5113292;27;20050;-72
2022/04/27 06:44:06;;;;;;;11.65;3.75;;;9.30;76.40;;;;;;5125707;28;20031;-72
2022/04/27 06:46:31;;;;;;;7.38;3.90;;;9.20;76.40;;;;;;5122093;28;20024;-72
2022/04/27 06:48:57;;;;;;;7.65;2.90;;;9.30;76.70;;;;;;5126301;28;20023;-71
2022/04/27 06:51:22;;;;;;;5.95;2.78;;;9.30;75.40;;;;;;5111091;28;20093;-72
2022/04/27 06:53:48;;;;;;;7.57;3.08;;;9.60;76.20;;;;;;5120683;28;20469;-72
2022/04/27 06:56:16;;;;;;;8.25;3.10;;;9.90;75.90;;;;;;5099818;28;20423;-72
2022/04/27 06:58:42;;;;;;;7.78;2.72;;;10.10;74.60;;;;;;5120394;27;20077;-72
2022/04/27 07:01:09;;;;;;;8.52;2.95;;;10.10;73.10;;;;;;5111023;28;20031;-72
2022/04/27 07:03:36;;;;;;;6.85;2.88;;;9.90;73.90;;;;;;5126852;28;20020;-72
2022/04/27 07:06:02;;;;;;;11.13;3.20;;;10.20;74.20;;;;;;5126665;28;20020;-72
2022/04/27 07:08:29;;;;;;;6.07;2.60;;;10.50;74.00;;;;;;5122289;28;20055;-73
2022/04/27 07:10:55;;;;;;;8.75;3.05;;;10.80;72.80;;;;;;5118526;28;20110;-74
2022/04/27 07:13:22;;;;;;;7.82;3.53;;;11.10;73.40;;;;;;5127106;28;20419;-72
2022/04/27 07:15:47;;;;;;;6.13;2.60;;;10.80;69.40;;;;;;5117791;28;20438;-72
2022/04/27 07:18:13;;;;;;;9.75;3.38;;;11.20;71.30;;;;;;5127790;28;20083;-72
2022/04/27 07:20:39;;;;;;;5.65;3.00;;;11.10;69.80;;;;;;5128303;28;20030;-72
2022/04/27 07:23:04;;;;;;;9.65;2.22;;;11.50;70.60;;;;;;5125411;28;20416;-72
2022/04/27 07:25:30;;;;;;;6.63;1.88;;;11.30;68.20;;;;;;5116929;28;20038;-72
2022/04/27 07:27:55;;;;;;;5.90;1.88;;;11.00;69.00;;;;;;5130036;28;20057;-72
2022/04/27 07:30:23;;;;;;;5.80;1.98;;;10.80;68.10;;;;;;5111937;28;20023;-72
2022/04/27 07:32:49;;;;;;;4.35;1.85;;;10.90;68.20;;;;;;5112264;28;20031;-72
2022/04/27 07:35:15;;;;;;;8.52;2.40;;;11.00;69.10;;;;;;5125250;27;20411;-72
2022/04/27 07:37:40;;;;;;;7.20;1.90;;;10.80;67.50;;;;;;5124592;27;20024;-72
2022/04/27 07:40:09;;;;;;;8.55;2.20;;;10.70;67.70;;;;;;5119468;28;20386;-72
2022/04/27 07:42:34;;;;;;;6.60;2.03;;;10.70;67.20;;;;;;5109067;28;20043;-72
2022/04/27 07:45:00;;;;;;;6.60;1.98;;;11.10;67.20;;;;;;5126326;28;20453;-72
2022/04/27 07:47:25;;;;;;;6.68;2.03;;;11.20;66.90;;;;;;5118502;27;20031;-72
2022/04/27 07:49:51;;;;;;;9.38;2.17;;;11.20;66.90;;;;;;5129736;27;20027;-73
2022/04/27 07:52:16;;;;;;;7.32;2.00;;;11.50;67.60;;;;;;5132103;27;20035;-72
2022/04/27 07:54:43;;;;;;;8.10;1.75;;;11.40;66.00;;;;;;5133169;27;20473;-72
2022/04/27 07:57:09;;;;;;;9.27;2.28;;;11.30;65.90;;;;;;5110209;28;20027;-72
2022/04/27 07:59:34;;;;;;;4.25;1.65;;;11.30;65.50;;;;;;5132738;27;20043;-72
2022/04/27 08:02:00;;;;;;;7.57;2.00;;;11.10;65.80;;;;;;5128739;27;20424;-72
2022/04/27 08:04:25;;;;;;;5.60;2.03;;;11.40;65.30;;;;;;5129861;27;20066;-72
2022/04/27 08:06:51;;;;;;;5.18;1.98;;;11.60;65.90;;;;;;5124464;27;20046;-72
2022/04/27 08:09:16;;;;;;;8.82;2.00;;;11.70;65.80;;;;;;5131860;27;20127;-73
2022/04/27 08:11:42;;;;;;;8.27;2.05;;;11.30;65.10;;;;;;5131382;27;20032;-72
2022/04/27 08:14:08;;;;;;;7.72;2.30;;;11.60;66.30;;;;;;5125958;27;20035;-72
2022/04/27 08:16:34;;;;;;;5.80;2.10;;;11.40;64.70;;;;;;5115027;27;20363;-73
2022/04/27 08:18:59;;;;;;;9.05;2.28;;;11.10;66.00;;;;;;5121248;27;20087;-73
2022/04/27 08:21:27;;;;;;;6.00;2.10;;;11.40;66.10;;;;;;5131385;27;20035;-74
2022/04/27 08:23:53;;;;;;;8.20;2.60;;;11.00;65.00;;;;;;5119531;27;20035;-72
2022/04/27 08:26:19;;;;;;;10.18;2.88;;;10.80;66.00;;;;;;5098753;27;20267;-74
2022/04/27 08:28:45;;;;;;;5.25;2.40;;;10.70;67.50;;;;;;5132741;27;20027;-72
2022/04/27 08:31:13;;;;;;;9.23;2.63;;;11.30;67.00;;;;;;5129069;27;20106;-72
2022/04/27 08:33:38;;;;;;;7.55;2.53;;;11.70;66.10;;;;;;5128251;27;20031;-72
2022/04/27 08:36:04;;;;;;;7.53;3.10;;;11.80;65.10;;;;;;5134462;27;20068;-72
2022/04/27 08:38:30;;;;;;;6.35;2.45;;;12.30;66.40;;;;;;5108433;28;20104;-73
2022/04/27 08:40:57;;;;;;;7.78;2.30;;;12.30;61.80;;;;;;5120309;27;20433;-73
2022/04/27 08:43:22;;;;;;;7.60;2.35;;;12.30;63.50;;;;;;5132131;27;20047;-73
2022/04/27 08:45:49;;;;;;;7.95;3.10;;;13.10;62.30;;;;;;5131349;27;20106;-73
2022/04/27 08:48:17;;;;;;;6.43;2.80;;;13.30;60.90;;;;;;5125774;27;20076;-72
2022/04/27 08:50:44;;;;;;;6.80;2.97;;;13.50;60.40;;;;;;5131157;27;20377;-73
2022/04/27 08:53:10;;;;;;;7.32;2.83;;;13.60;61.10;;;;;;5125980;27;20386;-73
2022/04/27 08:55:37;;;;;;;6.00;2.10;;;14.20;61.00;;;;;;5127747;27;20473;-72
2022/04/27 08:58:16;;;;;;;5.85;2.42;;;14.40;60.40;;;;;;5111747;27;20084;-72
2022/04/27 09:00:43;;;;;;;7.35;2.85;;;14.50;56.10;;;;;;5120701;27;20027;-73
2022/04/27 09:03:26;;;;;;;6.38;2.70;;;15.60;56.50;;;;;;5120950;27;20118;-72
2022/04/27 09:05:58;;;;;;;8.80;2.58;;;15.50;53.30;;;;;;5122079;27;20065;-73
2022/04/27 09:08:45;;;;;;;5.63;2.20;;;15.00;55.00;;;;;;5122365;27;20102;-72
2022/04/27 09:11:27;;;;;;;6.20;2.72;;;13.80;56.50;;;;;;5104314;27;20027;-72
2022/04/27 09:13:55;;;;;;;6.40;2.75;;;13.70;56.70;;;;;;5123899;27;20038;-73
2022/04/27 09:16:27;;;;;;;5.07;2.47;;;13.70;57.00;;;;;;5123388;27;20023;-72
2022/04/27 09:22:00;;;;;;;4.85;2.50;;;12.60;58.70;;;;;;5127695;27;20035;-73
2022/04/27 09:24:28;;;;;;;6.35;2.97;;;12.40;58.50;;;;;;5118603;27;20031;-72
2022/04/27 09:27:12;;;;;;;6.47;3.13;;;13.10;57.20;;;;;;5114913;27;20406;-73
2022/04/27 09:29:37;;;;;;;4.95;2.60;;;13.30;56.00;;;;;;5118624;27;20068;-72
2022/04/27 09:32:04;;;;;;;4.93;3.03;;;14.40;53.30;;;;;;5118514;27;20035;-72
2022/04/27 09:34:47;;;;;;;7.70;3.33;;;15.00;53.90;;;;;;5124873;27;20031;-71
2022/04/27 09:37:27;;;;;;;10.18;3.00;;;14.60;52.10;;;;;;5123968;27;20024;-73
2022/04/27 09:40:14;;;;;;;6.95;2.47;;;15.20;52.60;;;;;;5121909;27;20039;-73
2022/04/27 09:42:46;;;;;;;6.38;2.80;;;14.90;52.30;;;;;;5126163;27;20086;-72
2022/04/27 09:45:16;;;;;;;4.22;2.70;;;14.20;53.30;;;;;;5117566;27;20531;-74
2022/04/27 09:47:50;;;;;;;6.68;2.80;;;13.50;54.90;;;;;;5113424;27;20035;-74
2022/04/27 09:50:17;;;;;;;4.35;2.60;;;14.10;53.50;;;;;;5124241;27;20126;-76
2022/04/27 09:52:44;;;;;;;6.20;2.53;;;14.20;51.40;;;;;;5125787;27;20050;-73
2022/04/27 09:55:10;;;;;;;5.10;2.42;;;14.10;50.80;;;;;;5112329;27;20027;-72
2022/04/27 09:57:40;;;;;;;6.38;2.47;;;13.60;51.50;;;;;;5117195;27;20016;-73
2022/04/27 10:00:07;;;;;;;5.88;2.53;;;14.10;52.60;;;;;;5125297;27;20370;-73
2022/04/27 10:02:34;;;;;;;7.38;2.50;;;14.80;50.70;;;;;;5120982;27;20043;-73
2022/04/27 10:05:00;;;;;;;6.85;2.38;;;15.00;50.00;;;;;;5124990;27;20106;-69
2022/04/27 10:07:27;;;;;;;5.18;1.98;;;15.10;50.00;;;;;;5120807;27;20391;-68
2022/04/27 10:09:54;;;;;;;6.32;2.70;;;15.00;48.80;;;;;;5119164;27;20257;-69
2022/04/27 10:12:19;;;;;;;6.85;2.47;;;14.80;49.00;;;;;;5121216;27;20083;-70
2022/04/27 10:14:45;;;;;;;3.78;2.45;;;14.40;50.50;;;;;;5123033;27;20031;-69
2022/04/27 10:17:15;;;;;;;7.05;2.47;;;14.60;50.50;;;;;;5125541;27;20027;-69
2022/04/27 10:19:48;;;;;;;10.13;2.78;;;15.10;50.50;;;;;;5125600;27;20024;-70
2022/04/27 10:22:31;;;;;;;6.28;2.42;;;15.60;47.30;;;;;;5107480;27;20435;-71
2022/04/27 10:24:58;;;;;;;4.15;2.05;;;15.50;47.20;;;;;;5130310;27;20139;-71
2022/04/27 10:27:33;;;;;;;5.35;2.13;;;15.60;46.60;;;;;;5131860;27;20374;-71
2022/04/27 10:30:00;;;;;;;8.00;2.70;;;15.70;47.30;;;;;;5128617;27;20031;-70
2022/04/27 10:32:40;;;;;;;6.80;2.17;;;14.60;47.20;;;;;;5128579;27;20409;-71
2022/04/27 10:35:11;;;;;;;6.50;2.38;;;14.70;48.80;;;;;;5127642;27;20059;-71
2022/04/27 10:37:57;;;;;;;4.63;2.05;;;15.30;47.40;;;;;;5127142;27;20035;-71
2022/04/27 10:40:37;;;;;;;4.53;2.00;;;15.80;47.00;;;;;;5127520;27;20042;-71
2022/04/27 10:43:07;;;;;;;3.83;2.22;;;16.00;46.60;;;;;;5122894;28;20035;-69
2022/04/27 10:45:37;;;;;;;4.72;2.13;;;16.00;46.50;;;;;;5119408;27;20035;-69
2022/04/27 10:48:06;;;;;;;4.28;2.40;;;15.90;46.50;;;;;;5120171;28;20470;-71
2022/04/27 10:50:36;;;;;;;4.53;1.90;;;16.40;44.90;;;;;;5121754;27;20449;-70
2022/04/27 10:53:16;;;;;;;7.00;2.13;;;15.90;44.90;;;;;;5121765;28;20038;-69
2022/04/27 10:55:48;;;;;;;6.43;2.33;;;16.20;45.40;;;;;;5125212;28;20475;-69
2022/04/27 10:58:31;;;;;;;6.45;2.13;;;15.70;43.90;;;;;;5122188;28;20138;-69
2022/04/27 11:01:02;;;;;;;4.40;1.98;;;15.70;45.40;;;;;;5120392;28;20023;-70
2022/04/27 11:03:29;;;;;;;5.78;2.03;;;16.00;44.80;;;;;;5122567;28;20035;-71
2022/04/27 11:06:00;;;;;;;5.03;2.08;;;15.50;46.60;;;;;;5107498;28;20161;-71
2022/04/27 11:08:34;;;;;;;6.50;2.35;;;15.90;45.00;;;;;;5118461;27;20028;-71
2022/04/27 11:11:06;;;;;;;4.70;2.05;;;16.30;44.30;;;;;;5124834;28;20127;-71
2022/04/27 11:13:34;;;;;;;5.00;2.10;;;16.10;45.10;;;;;;5125350;28;20027;-74
2022/04/27 11:16:15;;;;;;;5.97;2.30;;;16.70;44.10;;;;;;5127272;28;20034;-73
2022/04/27 11:18:56;;;;;;;6.93;2.25;;;17.00;43.30;;;;;;5103239;28;20463;-72
2022/04/27 11:21:24;;;;;;;4.18;2.13;;;16.00;45.30;;;;;;5122270;28;20053;-73
2022/04/27 11:23:51;;;;;;;6.68;1.90;;;16.10;42.00;;;;;;5132187;27;20456;-72
2022/04/27 11:26:17;;;;;;;5.93;2.22;;;16.50;42.60;;;;;;5122507;27;20019;-73
2022/04/27 11:28:44;;;;;;;5.30;2.20;;;16.90;42.50;;;;;;5132834;27;20065;-72
2022/04/27 11:31:11;;;;;;;4.68;2.10;;;17.00;40.30;;;;;;5131591;27;20062;-71
2022/04/27 11:33:40;;;;;;;4.28;2.17;;;17.10;41.30;;;;;;5133519;27;20027;-71
2022/04/27 11:36:19;;;;;;;6.82;1.80;;;17.30;41.90;;;;;;5132214;27;20023;-72
2022/04/27 11:38:45;;;;;;;4.38;2.30;;;17.40;41.40;;;;;;5106487;28;20031;-72
2022/04/27 11:41:20;;;;;;;5.45;2.30;;;17.00;42.40;;;;;;5119208;27;20047;-72
2022/04/27 11:43:50;;;;;;;6.60;2.10;;;16.50;42.70;;;;;;5128451;27;20079;-72
2022/04/27 11:46:16;;;;;;;7.73;2.53;;;16.80;41.50;;;;;;5106826;27;20482;-71
2022/04/27 11:48:51;;;;;;;4.80;2.15;;;17.00;42.90;;;;;;5126786;27;20087;-74
2022/04/27 11:51:16;;;;;;;7.25;2.08;;;17.10;40.30;;;;;;5131988;27;20630;-73
2022/04/27 11:53:49;;;;;;;5.13;2.20;;;17.30;41.40;;;;;;5133447;27;20045;-74
2022/04/27 11:56:17;;;;;;;5.15;2.30;;;16.80;41.10;;;;;;5126803;27;20023;-74
2022/04/27 11:58:46;;;;;;;4.80;2.17;;;17.60;42.40;;;;;;5109570;27;20065;-74
2022/04/27 12:01:20;;;;;;;5.00;2.55;;;16.80;39.70;;;;;;5127983;27;20032;-73
2022/04/27 12:03:45;;;;;;;5.22;2.35;;;17.50;38.80;;;;;;5128393;27;20539;-74
2022/04/27 12:06:21;;;;;;;5.43;2.40;;;18.00;38.50;;;;;;5119944;27;20023;-73
2022/04/27 12:08:47;;;;;;;7.25;2.42;;;17.20;39.60;;;;;;5133754;27;20031;-75
2022/04/27 12:11:23;;;;;;;4.25;2.28;;;17.10;39.00;;;;;;5108545;27;20438;-73
2022/04/27 12:13:49;;;;;;;5.93;2.35;;;17.90;37.30;;;;;;5115160;27;20138;-74
2022/04/27 12:16:15;;;;;;;4.53;2.42;;;18.40;38.80;;;;;;5132112;27;20023;-74
2022/04/27 12:18:50;;;;;;;5.75;2.65;;;18.00;38.30;;;;;;5132672;27;20030;-73
2022/04/27 12:21:26;;;;;;;4.65;2.40;;;18.00;39.10;;;;;;5130508;27;20031;-73
2022/04/27 12:23:56;;;;;;;6.25;2.40;;;18.20;38.70;;;;;;5130162;27;20035;-73
2022/04/27 12:26:22;;;;;;;5.03;2.35;;;18.70;39.00;;;;;;5126092;27;20072;-73
2022/04/27 12:28:49;;;;;;;5.05;3.17;;;17.60;40.00;;;;;;5130917;27;20091;-73
2022/04/27 12:31:16;;;;;;;7.50;2.95;;;16.70;41.00;;;;;;5121342;27;20019;-72
2022/04/27 12:33:44;;;;;;;6.75;2.83;;;17.10;39.70;;;;;;5130874;27;20105;-73
2022/04/27 12:39:11;;;;;;;5.55;3.05;;;17.50;39.70;;;;;;5126457;27;20396;-73
2022/04/27 12:41:44;;;;;;;9.27;3.30;;;17.50;39.30;;;;;;5120088;27;20432;-71
2022/04/27 12:44:12;;;;;;;7.32;3.45;;;16.40;41.60;;;;;;5112666;27;20032;-71
2022/04/27 12:47:00;;;;;;;7.18;3.42;;;17.10;39.90;;;;;;5105612;28;20027;-71
2022/04/27 12:49:50;;;;;;;4.50;3.00;;;17.00;40.20;;;;;;5112314;27;20022;-70
2022/04/27 12:52:20;;;;;;;6.00;3.33;;;16.60;41.20;;;;;;5127868;27;20431;-70
2022/04/27 12:54:47;;;;;;;5.10;3.13;;;17.50;40.00;;;;;;5126873;27;20057;-70
2022/04/27 12:57:14;;;;;;;6.90;3.15;;;18.30;40.10;;;;;;5124147;27;20445;-70
2022/04/27 12:59:59;;;;;;;4.35;3.13;;;18.40;39.60;;;;;;5131481;27;20069;-70
2022/04/27 13:02:25;;;;;;;6.05;2.95;;;18.20;38.20;;;;;;5129888;27;20553;-70
2022/04/27 13:04:52;;;;;;;6.82;3.30;;;18.80;39.70;;;;;;5130827;27;20054;-70
2022/04/27 13:07:18;;;;;;;7.07;3.35;;;18.90;38.50;;;;;;5131131;27;20357;-70